»·PEaware :: N717TS KEGE-KAPA

N717TS :: KEGE-KAPA

FLIGHT INFORMATION

Flight Status: Arrived
Operator: Privately registered:
United States
More flights under this callsign
Pilot: Ty S. (2873)
Aircraft: ECLIPSE 500
(EA50)
More flights by this aircraft type
Origin: KEGE Eagle Co Regl
United States
Destination: KAPA Centennial
United States
More flights between these airports :: More routes between these airports
Route: BEVVR1 BELGN TOMSN TOMSN7
File this flight plan on PilotEdge
Remarks:
Altitude:
(Current/Filed)
25,000ft
Speed:
(Current/Filed)
380kts
Departed: 11-Jan-19 06:42 PM
Arrived: 11-Jan-19 07:28 PM
Distance/Time
Traveled:
96nm/0:46
Distance/Time
To Go:
Arrived

Flight Plot

Page will automatically refresh every two minutes.

Flight plan parsing failed; only flown route is shown


Map Options




Map Legend


Flown Route
Filed Route
Departure Airport
Arrival Airport
Navaid (VOR, NDB)
Fix

Horizontal Profiles

Position Reports

Time Latitude Longitude Heading Altitude Ground
Speed
11-Jan-19 18:25 39.641324 -106.909121 18 6548ft 0kts
11-Jan-19 18:26 39.641324 -106.909121 18 6548ft 0kts
11-Jan-19 18:27 39.641324 -106.909121 18 6548ft 0kts
11-Jan-19 18:28 39.641324 -106.909121 18 6548ft 0kts
11-Jan-19 18:29 39.641324 -106.909121 18 6548ft 0kts
11-Jan-19 18:30 39.641324 -106.909121 18 6548ft 0kts
11-Jan-19 18:31 39.641324 -106.909121 18 6548ft 0kts
11-Jan-19 18:32 39.641324 -106.909121 18 6548ft 0kts
11-Jan-19 18:33 39.641324 -106.909121 18 6548ft 0kts
11-Jan-19 18:34 39.641324 -106.909121 18 6548ft 0kts
11-Jan-19 18:35 39.641324 -106.909121 18 6548ft 0kts
11-Jan-19 18:36 39.641380 -106.909130 348 6548ft 0kts
11-Jan-19 18:37 39.642553 -106.907335 84 6548ft 17kts
11-Jan-19 18:38 39.643191 -106.901512 80 6548ft 12kts
11-Jan-19 18:39 39.643800 -106.900179 354 6548ft 6kts
11-Jan-19 18:40 39.644444 -106.900600 260 6548ft 0kts
11-Jan-19 18:41 39.642348 -106.919562 263 6590ft 131kts
11-Jan-19 18:42 39.610403 -106.958515 218 7986ft 196kts
11-Jan-19 18:43 39.580912 -107.019384 273 9949ft 227kts
11-Jan-19 18:44 39.605153 -107.092052 319 11969ft 241kts
11-Jan-19 18:45 39.666664 -107.103231 18 13983ft 246kts
11-Jan-19 18:46 39.704384 -107.029639 59 16000ft 251kts
11-Jan-19 18:47 39.737042 -106.950661 58 17986ft 245kts
11-Jan-19 18:48 39.770798 -106.869882 58 19275ft 263kts
11-Jan-19 18:49 39.806528 -106.784348 58 20635ft 273kts
11-Jan-19 18:50 39.843165 -106.696443 58 21933ft 280kts
11-Jan-19 18:51 39.880673 -106.606205 58 23126ft 286kts
11-Jan-19 18:52 39.918842 -106.514109 58 24213ft 293kts
11-Jan-19 18:53 39.957928 -106.419511 58 25168ft 300kts
11-Jan-19 18:54 39.997736 -106.322908 59 25209ft 332kts
11-Jan-19 18:55 40.042498 -106.213852 59 25208ft 355kts
11-Jan-19 18:56 40.090012 -106.097650 59 25208ft 369kts
11-Jan-19 18:57 40.137221 -105.981756 59 25210ft 378kts
11-Jan-19 18:58 40.188061 -105.856465 59 23593ft 394kts
11-Jan-19 18:59 40.238712 -105.731100 59 22265ft 385kts
11-Jan-19 19:00 40.286319 -105.612787 59 20329ft 356kts
11-Jan-19 19:01 40.332286 -105.498163 59 18335ft 355kts
11-Jan-19 19:02 40.316059 -105.387413 134 17099ft 329kts
11-Jan-19 19:03 40.250706 -105.305761 135 17075ft 335kts
11-Jan-19 19:04 40.181283 -105.219963 135 17075ft 350kts
11-Jan-19 19:05 40.109642 -105.131802 135 17088ft 357kts
11-Jan-19 19:06 40.037373 -105.043192 135 17036ft 357kts
11-Jan-19 19:07 39.967769 -104.958141 134 15536ft 332kts
11-Jan-19 19:08 39.906109 -104.882935 133 15105ft 320kts
11-Jan-19 19:09 39.839870 -104.802273 133 15074ft 330kts
11-Jan-19 19:10 39.772665 -104.720796 133 14445ft 322kts
11-Jan-19 19:11 39.720735 -104.658016 132 13252ft 300kts
11-Jan-19 19:12 39.653872 -104.594607 173 13182ft 326kts
11-Jan-19 19:13 39.561231 -104.592524 177 13183ft 334kts
11-Jan-19 19:14 39.471425 -104.590790 177 13181ft 314kts
11-Jan-19 19:15 39.383587 -104.589152 177 13176ft 320kts
11-Jan-19 19:16 39.295890 -104.590520 196 12094ft 315kts
11-Jan-19 19:17 39.262849 -104.682221 267 10852ft 293kts
11-Jan-19 19:18 39.253896 -104.785592 275 9354ft 280kts
11-Jan-19 19:19 39.297119 -104.838546 358 9167ft 205kts
11-Jan-19 19:20 39.355950 -104.841081 359 9180ft 217kts
11-Jan-19 19:21 39.404415 -104.843340 359 8840ft 149kts
11-Jan-19 19:22 39.444250 -104.845041 0 8143ft 144kts
11-Jan-19 19:23 39.483871 -104.846934 359 7395ft 134kts
11-Jan-19 19:24 39.515720 -104.848413 359 6698ft 98kts
11-Jan-19 19:25 39.541571 -104.849564 359 6209ft 92kts
11-Jan-19 19:26 39.565005 -104.850588 359 5884ft 52kts
11-Jan-19 19:27 39.572145 -104.850604 18 5884ft 24kts
11-Jan-19 19:28 39.570913 -104.848547 133 5884ft 8kts

Navigation Log

Ident Type
Flight plan parsing failed, navigation log unavailable